Time;durP1;ratioP1;P1;durP2;ratioP2;P2;SDS_P1;SDS_P2;PMS_P1;PMS_P2;Temp;Humidity;BMP_temperature;BMP_pressure;BME280_temperature;BME280_humidity;BME280_pressure;Samples;Min_cycle;Max_cycle;Signal;HPM_P1;HPM_P2
2023/05/17 00:00:12;;;;;;;7.93;1.20;;;;;;;8.20;72.55;98481.78;5073777;28;20214;-73
2023/05/17 00:02:38;;;;;;;2.30;1.13;;;;;;;8.18;72.93;98465.16;5073764;28;20252;-74
2023/05/17 00:05:06;;;;;;;2.20;1.10;;;;;;;8.16;72.57;98470.53;5074290;28;20214;-74
2023/05/17 00:07:32;;;;;;;2.13;1.20;;;;;;;8.12;73.18;98486.53;5079229;28;20231;-74
2023/05/17 00:09:59;;;;;;;2.10;1.27;;;;;;;8.07;73.45;98478.03;5073392;28;20234;-74
2023/05/17 00:12:26;;;;;;;4.27;1.60;;;;;;;8.06;73.93;98486.88;5073711;28;20747;-74
2023/05/17 00:14:53;;;;;;;3.70;1.47;;;;;;;8.01;74.39;98499.44;5073893;28;20216;-74
2023/05/17 00:17:20;;;;;;;2.37;1.30;;;;;;;8.06;73.96;98486.88;5074200;28;20613;-74
2023/05/17 00:19:46;;;;;;;3.80;1.00;;;;;;;8.02;73.85;98485.34;5073674;28;20213;-74
2023/05/17 00:22:12;;;;;;;1.93;1.20;;;;;;;7.94;74.66;98498.06;5073725;28;20224;-76
2023/05/17 00:24:39;;;;;;;2.87;1.27;;;;;;;7.89;74.91;98500.09;5073506;28;20565;-74
2023/05/17 00:27:06;;;;;;;2.60;1.37;;;;;;;7.94;74.58;98504.19;5073162;28;20208;-74
2023/05/17 00:29:34;;;;;;;4.27;1.43;;;;;;;7.98;74.93;98507.50;5072785;28;20252;-76
2023/05/17 00:32:00;;;;;;;1.50;1.20;;;;;;;7.92;74.91;98505.19;5072961;28;20234;-76
2023/05/17 00:34:26;;;;;;;3.87;1.30;;;;;;;7.93;74.91;98509.53;5077183;28;20226;-76
2023/05/17 00:36:53;;;;;;;2.07;1.07;;;;;;;7.85;75.44;98509.91;5074588;28;20206;-74
2023/05/17 00:39:19;;;;;;;3.43;1.87;;;;;;;7.85;75.68;98509.91;5072910;28;20208;-74
2023/05/17 00:41:46;;;;;;;2.80;1.40;;;;;;;7.79;75.81;98512.03;5072859;28;20215;-76
2023/05/17 00:44:12;;;;;;;3.33;1.47;;;;;;;7.81;75.75;98512.78;5072960;28;20215;-75
2023/05/17 00:46:40;;;;;;;2.07;1.40;;;;;;;7.69;76.82;98523.94;5072950;28;20209;-74
2023/05/17 00:49:07;;;;;;;1.57;1.20;;;;;;;7.60;78.03;98540.22;5071834;28;20237;-75
2023/05/17 00:51:35;;;;;;;2.93;1.50;;;;;;;7.46;79.44;98548.78;5072706;28;20685;-74
2023/05/17 00:54:03;;;;;;;3.57;1.23;;;;;;;7.35;80.93;98560.78;5073150;28;20213;-74
2023/05/17 00:56:30;;;;;;;1.93;1.17;;;;;;;7.20;81.95;98560.69;5072682;28;20211;-74
2023/05/17 00:58:57;;;;;;;1.93;1.20;;;;;;;6.99;83.48;98566.97;5072205;28;20216;-74
2023/05/17 01:01:23;;;;;;;3.47;1.33;;;;;;;6.84;85.85;98568.56;5070959;28;20229;-74
2023/05/17 01:03:51;;;;;;;3.00;1.60;;;;;;;6.81;86.67;98563.47;5070514;28;20237;-74
2023/05/17 01:06:18;;;;;;;5.20;1.87;;;;;;;6.85;86.45;98572.03;5087770;28;20214;-74
2023/05/17 01:08:45;;;;;;;3.67;1.40;;;;;;;6.83;85.61;98561.59;5087749;28;20227;-74
2023/05/17 01:11:22;;;;;;;3.57;1.60;;;;;;;6.84;86.49;98572.97;5090701;28;20209;-74
2023/05/17 01:13:55;;;;;;;1.97;1.10;;;;;;;6.82;87.01;98582.69;5090611;28;20249;-75
2023/05/17 01:16:28;;;;;;;4.73;1.10;;;;;;;6.82;87.27;98575.66;5091523;28;20218;-76
2023/05/17 01:19:02;;;;;;;3.60;1.37;;;;;;;6.78;88.39;98584.59;5091142;28;20211;-76
2023/05/17 01:21:39;;;;;;;3.60;1.20;;;;;;;6.73;89.50;98586.59;5092119;28;20213;-75
2023/05/17 01:24:24;;;;;;;2.80;1.37;;;;;;;6.68;90.26;98590.38;5091157;28;20314;-76
2023/05/17 01:26:53;;;;;;;5.33;1.93;;;;;;;6.78;89.52;98579.34;5090461;28;20238;-76
2023/05/17 01:29:24;;;;;;;2.00;1.50;;;;;;;6.85;88.23;98577.28;5090780;28;20246;-74
2023/05/17 01:31:52;;;;;;;3.80;1.50;;;;;;;6.92;87.80;98574.31;5079938;28;20300;-73
2023/05/17 01:34:25;;;;;;;3.40;1.60;;;;;;;6.96;87.22;98569.75;5073166;28;20215;-74
2023/05/17 01:36:51;;;;;;;5.60;1.70;;;;;;;6.99;87.39;98573.09;5072810;28;20212;-74
2023/05/17 01:39:18;;;;;;;4.37;1.57;;;;;;;7.04;86.55;98565.84;5072398;28;20211;-74
2023/05/17 01:41:50;;;;;;;5.07;1.60;;;;;;;7.02;87.08;98577.34;5072376;28;20301;-76
2023/05/17 01:44:26;;;;;;;2.53;1.37;;;;;;;7.11;85.80;98564.63;5072327;28;20800;-74
2023/05/17 01:47:00;;;;;;;2.93;1.40;;;;;;;7.15;85.85;98566.16;5072332;28;20263;-74
2023/05/17 01:49:30;;;;;;;3.07;1.40;;;;;;;7.10;85.53;98567.31;5071720;28;20263;-75
2023/05/17 01:51:58;;;;;;;3.90;1.50;;;;;;;7.15;85.24;98557.44;5071750;28;20240;-74
2023/05/17 01:54:36;;;;;;;4.33;1.53;;;;;;;7.22;85.59;98570.22;5071611;28;20210;-74
2023/05/17 01:57:05;;;;;;;3.30;1.60;;;;;;;7.22;84.84;98572.84;5071578;28;20214;-74
2023/05/17 01:59:34;;;;;;;3.97;1.70;;;;;;;7.19;84.16;98572.97;5073849;28;20289;-74
2023/05/17 02:02:05;;;;;;;1.93;1.40;;;;;;;7.19;84.28;98575.59;5077262;28;20230;-74
2023/05/17 02:04:32;;;;;;;2.00;1.27;;;;;;;7.21;84.55;98576.38;5074816;28;20205;-74
2023/05/17 02:06:59;;;;;;;5.53;1.70;;;;;;;7.23;84.26;98566.66;5074974;28;20218;-74
2023/05/17 02:09:25;;;;;;;2.03;1.50;;;;;;;7.30;83.50;98568.03;5074634;28;20229;-74
2023/05/17 02:11:52;;;;;;;3.10;1.50;;;;;;;7.29;84.21;98571.59;5074960;28;20294;-74
2023/05/17 02:14:18;;;;;;;3.93;1.73;;;;;;;7.31;83.81;98577.63;5075264;28;20223;-74
2023/05/17 02:16:46;;;;;;;2.03;1.40;;;;;;;7.29;83.80;98576.88;5075070;28;20218;-74
2023/05/17 02:19:13;;;;;;;6.00;1.37;;;;;;;7.23;83.43;98577.16;5072577;28;20576;-74
2023/05/17 02:21:40;;;;;;;2.20;1.37;;;;;;;7.16;83.57;98582.78;5072880;28;20210;-74
2023/05/17 02:24:07;;;;;;;1.83;1.03;;;;;;;7.13;84.65;98596.06;5072423;28;20214;-74
2023/05/17 02:26:33;;;;;;;4.53;1.20;;;;;;;7.07;84.52;98591.97;5072598;28;20214;-75
2023/05/17 02:29:00;;;;;;;4.37;1.63;;;;;;;7.08;84.90;98593.66;5075003;28;20307;-75
2023/05/17 02:31:26;;;;;;;3.83;1.50;;;;;;;7.04;84.64;98602.63;5070232;28;20216;-75
2023/05/17 02:33:54;;;;;;;1.57;1.47;;;;;;;7.02;85.57;98598.38;5071027;28;20234;-75
2023/05/17 02:36:21;;;;;;;2.80;1.50;;;;;;;6.96;85.47;98598.66;5071068;28;20209;-75
2023/05/17 02:38:47;;;;;;;5.77;2.00;;;;;;;6.94;85.62;98609.25;5070959;28;20255;-75
2023/05/17 02:41:14;;;;;;;2.33;1.30;;;;;;;6.94;86.33;98605.75;5070674;28;20209;-74
2023/05/17 02:43:40;;;;;;;3.17;1.50;;;;;;;6.87;86.46;98607.84;5071108;28;20588;-74
2023/05/17 02:46:07;;;;;;;1.73;1.40;;;;;;;6.75;87.69;98612.78;5071399;28;20208;-75
2023/05/17 02:48:33;;;;;;;1.73;1.30;;;;;;;6.69;88.85;98613.06;5071510;28;20213;-74
2023/05/17 02:51:01;;;;;;;3.40;1.50;;;;;;;6.64;89.38;98609.81;5071508;28;20262;-74
2023/05/17 02:53:28;;;;;;;2.67;1.70;;;;;;;6.56;89.78;98620.69;5072101;28;20234;-75
2023/05/17 02:55:56;;;;;;;2.07;1.60;;;;;;;6.52;90.86;98620.88;5072117;28;20214;-74
2023/05/17 02:58:23;;;;;;;2.90;1.60;;;;;;;6.43;92.13;98619.53;5071100;28;20211;-74
2023/05/17 03:00:50;;;;;;;2.80;1.93;;;;;;;6.35;93.47;98624.25;5072354;28;20217;-74
2023/05/17 03:03:16;;;;;;;1.43;1.30;;;;;;;6.26;94.73;98627.31;5070968;28;20242;-75
2023/05/17 03:05:43;;;;;;;3.43;1.73;;;;;;;6.22;96.00;98624.88;5070764;28;20208;-74
2023/05/17 03:08:10;;;;;;;2.90;1.67;;;;;;;6.15;95.90;98634.78;5070726;28;20224;-74
2023/05/17 03:10:37;;;;;;;3.50;1.60;;;;;;;6.11;96.86;98630.59;5070529;28;20240;-75
2023/05/17 03:13:03;;;;;;;3.53;1.93;;;;;;;6.02;96.95;98632.75;5094850;22;20238;-77
2023/05/17 03:15:30;;;;;;;2.17;1.50;;;;;;;5.92;98.20;98629.69;5094934;28;20209;-77
2023/05/17 03:17:56;;;;;;;1.83;1.37;;;;;;;5.88;98.65;98646.47;5094976;28;20579;-77
2023/05/17 03:20:23;;;;;;;1.73;1.33;;;;;;;5.87;99.29;98643.91;5094550;28;20702;-77
2023/05/17 03:22:50;;;;;;;3.23;1.63;;;;;;;5.81;100.00;98645.00;5094699;28;20732;-77
2023/05/17 03:25:18;;;;;;;2.70;1.90;;;;;;;5.77;100.00;98645.19;5095049;28;20207;-77
2023/05/17 03:27:44;;;;;;;3.60;1.47;;;;;;;5.70;100.00;98648.97;5094652;28;20206;-77
2023/05/17 03:30:11;;;;;;;3.43;1.80;;;;;;;5.62;100.00;98658.94;5094528;28;20234;-77
2023/05/17 03:32:39;;;;;;;3.33;1.73;;;;;;;5.57;100.00;98651.25;5094761;28;20249;-77
2023/05/17 03:35:07;;;;;;;4.87;2.10;;;;;;;5.51;100.00;98659.34;5094547;28;20564;-77
2023/05/17 03:37:33;;;;;;;2.10;1.83;;;;;;;5.50;100.00;98655.03;5094265;28;20211;-77
2023/05/17 03:40:00;;;;;;;3.53;2.20;;;;;;;5.46;100.00;98658.72;5094213;28;20208;-77
2023/05/17 03:42:27;;;;;;;3.00;2.00;;;;;;;5.44;100.00;98670.19;5094427;28;20576;-77
2023/05/17 03:44:54;;;;;;;3.80;2.10;;;;;;;5.42;100.00;98658.88;5094462;28;20213;-77
2023/05/17 03:47:22;;;;;;;3.70;2.10;;;;;;;5.41;100.00;98660.66;5094410;28;20212;-77
2023/05/17 03:49:48;;;;;;;3.03;2.23;;;;;;;5.41;100.00;98660.66;5094096;28;20637;-77
2023/05/17 03:52:15;;;;;;;3.97;2.17;;;;;;;5.50;100.00;98669.94;5094323;28;20219;-77
2023/05/17 03:54:42;;;;;;;3.27;2.07;;;;;;;5.52;100.00;98666.34;5094319;28;20210;-77
2023/05/17 03:57:08;;;;;;;3.47;2.20;;;;;;;5.59;100.00;98670.41;5094244;28;20294;-77
2023/05/17 03:59:36;;;;;;;3.60;2.00;;;;;;;5.61;100.00;98668.56;5094063;28;20206;-77
2023/05/17 04:02:02;;;;;;;4.60;2.13;;;;;;;5.68;100.00;98675.25;5094050;28;20234;-77
2023/05/17 04:04:29;;;;;;;5.10;2.10;;;;;;;5.72;100.00;98679.47;5094134;28;20753;-77
2023/05/17 04:06:55;;;;;;;4.97;2.03;;;;;;;5.83;100.00;98674.66;5094247;28;20207;-77
2023/05/17 04:09:22;;;;;;;2.27;1.77;;;;;;;5.92;100.00;98674.28;5093647;28;20207;-77
2023/05/17 04:11:48;;;;;;;3.73;1.93;;;;;;;5.97;100.00;98669.69;5093997;28;20207;-77
2023/05/17 04:14:15;;;;;;;1.93;1.83;;;;;;;6.00;100.00;98672.19;5093599;28;20235;-77
2023/05/17 04:16:43;;;;;;;3.60;2.07;;;;;;;6.02;100.00;98675.59;5093488;28;20245;-77
2023/05/17 04:19:09;;;;;;;3.93;1.90;;;;;;;6.05;100.00;98680.69;5093543;28;20211;-77
2023/05/17 04:21:36;;;;;;;2.67;1.90;;;;;;;6.16;100.00;98677.66;5093454;28;20227;-77
2023/05/17 04:24:02;;;;;;;4.07;2.00;;;;;;;6.19;100.00;98686.22;5093428;28;20241;-77
2023/05/17 04:26:29;;;;;;;3.57;2.20;;;;;;;6.21;99.71;98692.25;5093541;28;20229;-77
2023/05/17 04:28:55;;;;;;;5.70;2.43;;;;;;;6.28;100.00;98693.69;5093593;28;20215;-77
2023/05/17 04:31:24;;;;;;;5.27;2.23;;;;;;;6.34;99.48;98693.44;5092961;28;20229;-77
2023/05/17 04:33:55;;;;;;;4.23;2.20;;;;;;;6.41;98.47;98697.50;5093582;28;20234;-77
2023/05/17 04:36:21;;;;;;;3.03;2.00;;;;;;;6.40;97.79;98682.66;5093462;28;20214;-77
2023/05/17 04:38:48;;;;;;;4.53;2.10;;;;;;;6.40;97.80;98693.16;5093255;28;20207;-77
2023/05/17 04:41:14;;;;;;;2.87;2.00;;;;;;;6.47;98.46;98689.34;5092870;28;20206;-77
2023/05/17 04:43:41;;;;;;;2.23;1.70;;;;;;;6.52;98.00;98703.13;5092847;28;20682;-77
2023/05/17 04:46:08;;;;;;;4.10;1.80;;;;;;;6.54;97.84;98711.78;5093066;28;20207;-77
2023/05/17 04:48:34;;;;;;;3.33;2.00;;;;;;;6.55;97.30;98710.91;5093386;28;20211;-77
2023/05/17 04:51:03;;;;;;;4.10;1.90;;;;;;;6.69;97.51;98708.50;5092659;28;21010;-77
2023/05/17 04:53:30;;;;;;;3.63;1.80;;;;;;;6.73;96.97;98707.41;5093043;28;20275;-77
2023/05/17 04:55:57;;;;;;;3.87;1.93;;;;;;;6.85;96.42;98712.13;5092932;28;20688;-77
2023/05/17 04:58:24;;;;;;;3.33;2.10;;;;;;;6.92;95.36;98710.94;5092585;28;20209;-77
2023/05/17 05:00:50;;;;;;;3.70;1.97;;;;;;;6.96;95.40;98714.28;5092843;28;20257;-77
2023/05/17 05:03:20;;;;;;;4.10;1.97;;;;;;;7.02;95.69;98714.84;5092973;28;20231;-77
2023/05/17 05:05:46;;;;;;;3.27;1.73;;;;;;;7.04;95.70;98723.53;5093013;28;20537;-77
2023/05/17 05:08:14;;;;;;;4.27;2.00;;;;;;;7.06;96.13;98726.06;5092610;28;20298;-77
2023/05/17 05:10:44;;;;;;;4.10;1.90;;;;;;;7.10;95.07;98725.00;5092426;28;20257;-77
2023/05/17 05:13:10;;;;;;;3.83;2.00;;;;;;;7.16;95.44;98725.59;5092309;28;20750;-77
2023/05/17 05:15:37;;;;;;;3.03;2.00;;;;;;;7.23;95.05;98725.22;5092741;28;20203;-77
2023/05/17 05:18:04;;;;;;;4.83;2.27;;;;;;;7.29;94.93;98729.34;5092621;28;20256;-77
2023/05/17 05:20:31;;;;;;;4.50;1.90;;;;;;;7.38;93.97;98727.16;5092241;28;20211;-77
2023/05/17 05:22:59;;;;;;;3.17;2.00;;;;;;;7.44;93.19;98731.25;5092225;28;20244;-77
2023/05/17 05:25:27;;;;;;;3.40;2.00;;;;;;;7.65;92.81;98728.44;5092313;28;20237;-77
2023/05/17 05:27:54;;;;;;;4.00;1.93;;;;;;;7.88;91.55;98730.81;5092274;28;20215;-77
2023/05/17 05:30:21;;;;;;;5.70;2.37;;;;;;;8.11;89.61;98722.66;5092150;28;20231;-77
2023/05/17 05:32:49;;;;;;;5.67;2.00;;;;;;;8.32;87.56;98731.28;5092233;28;20235;-77
2023/05/17 05:35:15;;;;;;;4.13;2.00;;;;;;;8.42;86.08;98729.88;5091698;28;20209;-77
2023/05/17 05:37:42;;;;;;;9.03;2.23;;;;;;;8.44;86.37;98735.94;5091918;28;20600;-77
2023/05/17 05:40:09;;;;;;;2.27;1.70;;;;;;;8.53;85.38;98735.44;5091643;28;20216;-77
2023/05/17 05:42:38;;;;;;;4.70;1.80;;;;;;;8.77;81.71;98718.38;5091733;28;20705;-77
2023/05/17 05:45:05;;;;;;;3.37;1.70;;;;;;;8.92;81.08;98715.75;5091967;28;20208;-77
2023/05/17 05:47:32;;;;;;;3.73;2.07;;;;;;;9.01;80.24;98714.44;5091905;28;20205;-77
2023/05/17 05:49:58;;;;;;;4.30;1.90;;;;;;;9.07;80.75;98727.28;5091546;28;20216;-77
2023/05/17 05:52:25;;;;;;;3.10;2.37;;;;;;;9.16;79.34;98726.75;5091631;28;20224;-77
2023/05/17 05:54:51;;;;;;;3.53;1.83;;;;;;;9.20;77.58;98717.75;5091788;28;20691;-77
2023/05/17 05:57:18;;;;;;;4.50;2.23;;;;;;;9.32;77.77;98727.66;5091680;28;20207;-79
2023/05/17 05:59:46;;;;;;;2.97;1.90;;;;;;;9.30;76.68;98724.25;5091596;28;20216;-78
2023/05/17 06:02:12;;;;;;;6.40;2.13;;;;;;;9.35;77.35;98727.47;5091473;28;20209;-77
2023/05/17 06:04:39;;;;;;;4.20;1.63;;;;;;;9.59;77.06;98726.09;5091649;28;20213;-77
2023/05/17 06:07:05;;;;;;;2.20;1.73;;;;;;;9.79;74.33;98717.94;5091684;28;20215;-77
2023/05/17 06:09:32;;;;;;;2.90;1.90;;;;;;;9.87;73.83;98721.00;5091553;28;20207;-77
2023/05/17 06:11:59;;;;;;;4.20;1.80;;;;;;;9.96;73.47;98726.59;5091528;28;20240;-77
2023/05/17 06:14:26;;;;;;;4.70;2.07;;;;;;;9.81;73.67;98721.34;5091398;28;20265;-77
2023/05/17 06:16:54;;;;;;;3.53;2.00;;;;;;;9.76;73.85;98739.22;5091541;28;20221;-77
2023/05/17 06:19:20;;;;;;;3.83;1.90;;;;;;;9.83;74.30;98741.44;5091121;28;20216;-77
2023/05/17 06:21:47;;;;;;;2.50;1.90;;;;;;;9.98;73.90;98742.34;5091257;28;20210;-77
2023/05/17 06:24:13;;;;;;;6.13;2.50;;;;;;;10.08;72.95;98741.75;5091145;28;20722;-77
2023/05/17 06:26:40;;;;;;;6.17;2.20;;;;;;;10.38;71.43;98737.34;5091414;28;20217;-77
2023/05/17 06:29:10;;;;;;;6.50;2.20;;;;;;;10.83;69.26;98725.81;5091152;28;20705;-79
2023/05/17 06:31:36;;;;;;;5.07;2.20;;;;;;;11.31;68.52;98717.50;5091239;28;20322;-79
2023/05/17 06:34:04;;;;;;;4.03;1.90;;;;;;;11.64;65.65;98713.59;5090996;28;20224;-76
2023/05/17 06:36:30;;;;;;;4.90;1.97;;;;;;;11.84;64.42;98707.00;5091013;28;20220;-76
2023/05/17 06:38:57;;;;;;;4.03;2.10;;;;;;;11.84;64.45;98712.28;5091519;28;20232;-79
2023/05/17 06:41:23;;;;;;;3.57;1.97;;;;;;;12.20;63.68;98717.81;5090955;28;20218;-77
2023/05/17 06:43:50;;;;;;;5.20;2.10;;;;;;;12.30;63.62;98711.78;5091058;28;20273;-77
2023/05/17 06:46:16;;;;;;;5.37;2.10;;;;;;;12.03;63.74;98718.06;5091153;28;20203;-77
2023/05/17 06:48:43;;;;;;;2.83;1.90;;;;;;;11.65;65.45;98719.72;5094674;28;20205;-77
2023/05/17 06:51:11;;;;;;;3.47;2.00;;;;;;;11.41;68.11;98745.06;5095237;28;20233;-77
2023/05/17 06:53:37;;;;;;;4.13;2.30;;;;;;;10.93;68.58;98742.81;5095273;28;20236;-77
2023/05/17 06:56:04;;;;;;;6.27;2.20;;;;;;;10.67;69.85;98754.13;5095315;28;20229;-77
2023/05/17 06:58:31;;;;;;;4.93;2.30;;;;;;;10.53;71.29;98770.78;5095271;28;20204;-77
2023/05/17 07:00:57;;;;;;;4.23;2.13;;;;;;;10.41;72.79;98770.66;5094941;28;20298;-77
2023/05/17 07:03:24;;;;;;;4.53;2.13;;;;;;;10.31;74.30;98774.78;5094957;28;20231;-77
2023/05/17 07:05:50;;;;;;;5.37;2.10;;;;;;;10.26;75.50;98772.41;5095097;28;20213;-77
2023/05/17 07:08:18;;;;;;;4.10;2.50;;;;;;;10.07;77.54;98787.63;5095082;28;20274;-78
2023/05/17 07:10:45;;;;;;;4.90;1.90;;;;;;;9.95;78.38;98793.56;5094835;28;20226;-77
2023/05/17 07:13:11;;;;;;;3.30;2.37;;;;;;;9.89;79.18;98798.31;5094707;28;20240;-77
2023/05/17 07:15:38;;;;;;;3.37;2.10;;;;;;;9.83;79.00;98793.38;5094780;28;20218;-77
2023/05/17 07:18:04;;;;;;;5.67;2.43;;;;;;;9.88;77.72;98791.34;5094806;28;20210;-77
2023/05/17 07:20:31;;;;;;;5.47;2.60;;;;;;;9.97;77.95;98791.66;5094669;28;20209;-77
2023/05/17 07:22:58;;;;;;;5.93;2.53;;;;;;;10.11;79.62;98798.84;5094692;28;20327;-75
2023/05/17 07:25:25;;;;;;;4.67;2.73;;;;;;;10.18;78.51;98794.91;5094815;28;20212;-77
2023/05/17 07:27:52;;;;;;;5.37;2.53;;;;;;;10.24;77.46;98795.44;5094589;28;20217;-76
2023/05/17 07:30:18;;;;;;;4.23;2.80;;;;;;;10.32;76.98;98793.19;5094202;28;20571;-76
2023/05/17 07:32:45;;;;;;;3.97;2.17;;;;;;;10.51;77.36;98798.28;5094635;28;20228;-75
2023/05/17 07:35:11;;;;;;;4.10;2.30;;;;;;;10.75;75.84;98780.94;5094327;28;20218;-75
2023/05/17 07:37:38;;;;;;;6.10;2.70;;;;;;;10.93;73.74;98774.53;5094442;28;20208;-75
2023/05/17 07:40:05;;;;;;;4.67;2.40;;;;;;;11.05;79.24;98805.53;5093965;28;20721;-75
2023/05/17 07:42:34;;;;;;;5.63;2.83;;;;;;;11.27;76.16;98790.06;5094322;28;20274;-75
2023/05/17 07:45:00;;;;;;;4.30;2.50;;;;;;;11.26;71.42;98754.81;5094294;28;20211;-79
2023/05/17 07:47:27;;;;;;;6.93;2.70;;;;;;;11.25;69.69;98744.34;5094403;28;20210;-75
2023/05/17 07:49:53;;;;;;;5.67;2.40;;;;;;;11.30;69.59;98758.13;5093885;28;20223;-75
2023/05/17 07:52:20;;;;;;;4.43;2.70;;;;;;;11.35;71.57;98771.91;5094094;28;20613;-76
2023/05/17 07:54:46;;;;;;;6.10;2.57;;;;;;;11.35;73.02;98767.50;5094350;28;20245;-75
2023/05/17 07:57:13;;;;;;;6.50;2.53;;;;;;;11.34;70.91;98755.22;5094113;28;20217;-75
2023/05/17 07:59:41;;;;;;;4.40;2.33;;;;;;;11.39;74.06;98779.59;5093057;28;20213;-75
2023/05/17 08:02:08;;;;;;;4.93;2.97;;;;;;;11.47;71.12;98768.50;5094049;28;20690;-75
2023/05/17 08:04:35;;;;;;;5.50;2.60;;;;;;;11.42;70.41;98754.72;5094107;28;20202;-75
2023/05/17 08:07:02;;;;;;;5.57;2.57;;;;;;;11.27;71.96;98761.84;5093957;28;20214;-76
2023/05/17 08:09:28;;;;;;;3.63;2.30;;;;;;;11.32;71.42;98761.53;5093405;28;20240;-74
2023/05/17 08:11:54;;;;;;;5.07;2.73;;;;;;;11.36;71.40;98760.38;5093567;28;20226;-75
2023/05/17 08:14:23;;;;;;;4.50;2.40;;;;;;;11.54;72.33;98772.47;5093328;28;20568;-75
2023/05/17 08:16:51;;;;;;;3.23;2.33;;;;;;;11.66;70.21;98753.19;5093870;28;20207;-75
2023/05/17 08:19:18;;;;;;;6.33;2.73;;;;;;;11.68;70.16;98769.84;5093206;28;20210;-75
2023/05/17 08:21:45;;;;;;;4.93;2.37;;;;;;;11.65;68.98;98754.16;5093604;28;20211;-75
2023/05/17 08:24:12;;;;;;;6.77;2.40;;;;;;;11.76;69.05;98762.25;5093309;28;20226;-74
2023/05/17 08:26:38;;;;;;;5.83;2.90;;;;;;;11.66;67.56;98756.69;5093256;28;20214;-75
2023/05/17 08:29:05;;;;;;;5.23;2.63;;;;;;;11.93;69.32;98764.69;5093409;28;20210;-74
2023/05/17 08:31:32;;;;;;;4.03;2.83;;;;;;;11.92;67.59;98757.69;5093175;28;20235;-74
2023/05/17 08:34:00;;;;;;;5.45;3.22;;;;;;;12.17;66.15;98747.19;5091531;28;20790;-75
2023/05/17 08:36:27;;;;;;;7.07;2.90;;;;;;;12.22;65.79;98747.75;5091868;28;20221;-75
2023/05/17 08:38:53;;;;;;;4.07;2.60;;;;;;;12.18;64.68;98738.28;5092327;28;20226;-76
2023/05/17 08:41:20;;;;;;;5.00;2.80;;;;;;;12.17;64.99;98741.88;5091771;28;20213;-76
2023/05/17 08:43:47;;;;;;;4.30;2.43;;;;;;;12.30;64.68;98753.38;5092236;28;20233;-76
2023/05/17 08:46:15;;;;;;;7.07;2.70;;;;;;;12.55;65.51;98753.44;5092416;28;20676;-76
2023/05/17 08:48:42;;;;;;;5.00;2.70;;;;;;;12.68;64.84;98751.66;5092522;28;20199;-76
2023/05/17 08:51:11;;;;;;;6.20;2.83;;;;;;;12.82;63.62;98743.59;5091822;28;20233;-76
2023/05/17 08:53:38;;;;;;;5.77;2.67;;;;;;;12.72;61.73;98726.63;5091878;28;20324;-76
2023/05/17 08:56:06;;;;;;;6.20;2.90;;;;;;;12.80;62.12;98730.47;5092067;28;20225;-76
2023/05/17 08:58:36;;;;;;;3.33;2.50;;;;;;;12.94;61.42;98724.19;5092340;28;20245;-75
2023/05/17 09:01:03;;;;;;;3.57;2.53;;;;;;;12.94;60.74;98725.03;5091993;28;20203;-76
2023/05/17 09:03:32;;;;;;;5.03;2.27;;;;;;;13.07;63.22;98746.31;5091605;28;20915;-76
2023/05/17 09:05:59;;;;;;;4.40;2.80;;;;;;;13.01;60.99;98722.84;5091762;28;20206;-76
2023/05/17 09:08:29;;;;;;;7.33;3.30;;;;;;;13.01;60.53;98720.22;5091901;28;20672;-76
2023/05/17 09:10:58;;;;;;;4.73;2.50;;;;;;;13.25;60.18;98719.31;5090643;28;20207;-76
2023/05/17 09:13:25;;;;;;;7.87;2.87;;;;;;;13.47;60.28;98726.59;5099175;22;20842;-74
2023/05/17 09:15:52;;;;;;;4.83;2.53;;;;;;;13.61;59.71;98726.44;5071460;28;20204;-75
2023/05/17 09:18:21;;;;;;;3.87;2.80;;;;;;;13.44;57.64;98694.97;5071678;28;20208;-75
2023/05/17 09:20:51;;;;;;;5.10;2.50;;;;;;;13.24;56.89;98691.06;5071044;28;20222;-75
2023/05/17 09:23:20;;;;;;;4.50;2.63;;;;;;;13.43;56.49;98686.16;5071604;28;20238;-75
2023/05/17 09:25:49;;;;;;;4.07;2.57;;;;;;;13.70;58.40;98720.50;5071064;28;20212;-75
2023/05/17 09:28:18;;;;;;;3.63;2.70;;;;;;;13.86;57.64;98710.44;5071354;28;20208;-75
2023/05/17 09:30:49;;;;;;;4.87;2.87;;;;;;;13.94;59.11;98724.03;5071017;28;20839;-75
2023/05/17 09:33:15;;;;;;;4.63;2.47;;;;;;;14.19;59.59;98737.22;5071554;28;20242;-75
2023/05/17 09:35:42;;;;;;;4.13;2.40;;;;;;;14.41;54.90;98692.09;5070543;28;20215;-75
2023/05/17 09:38:11;;;;;;;4.67;2.50;;;;;;;14.04;54.14;98666.56;5071309;28;20635;-75
2023/05/17 09:40:39;;;;;;;5.97;2.67;;;;;;;13.89;53.57;98663.25;5086952;28;20254;-75
2023/05/17 09:43:07;;;;;;;6.97;2.57;;;;;;;14.02;55.88;98706.56;5091330;28;20225;-75
2023/05/17 09:45:34;;;;;;;6.33;2.60;;;;;;;14.00;52.45;98655.31;5091193;28;20676;-75
2023/05/17 09:48:12;;;;;;;3.57;2.63;;;;;;;14.04;53.66;98672.72;5090844;28;20203;-75
2023/05/17 09:50:43;;;;;;;3.33;2.00;;;;;;;14.01;54.69;98693.38;5090890;28;20298;-75
2023/05/17 09:53:23;;;;;;;3.83;2.50;;;;;;;14.12;54.07;98685.47;5090900;28;20730;-75
2023/05/17 09:55:50;;;;;;;7.13;2.60;;;;;;;14.22;53.11;98670.53;5091740;28;20212;-77
2023/05/17 09:58:18;;;;;;;5.17;3.00;;;;;;;14.17;51.81;98659.38;5091887;28;20591;-77
2023/05/17 10:00:48;;;;;;;8.73;2.87;;;;;;;14.09;53.54;98680.34;5091417;28;20205;-77
2023/05/17 10:03:14;;;;;;;5.43;2.67;;;;;;;14.03;54.46;98694.09;5091718;28;20319;-77
2023/05/17 10:05:43;;;;;;;4.07;2.57;;;;;;;13.86;54.88;98694.50;5091621;28;20208;-76
2023/05/17 10:08:10;;;;;;;4.50;2.73;;;;;;;13.83;55.57;98705.34;5089242;28;20211;-76
2023/05/17 10:10:37;;;;;;;5.70;2.37;;;;;;;13.69;56.51;98718.81;5090798;28;20203;-74
2023/05/17 10:13:05;;;;;;;3.97;2.87;;;;;;;13.78;56.24;98718.97;5090286;28;20235;-76
2023/05/17 10:15:33;;;;;;;4.13;2.80;;;;;;;13.89;56.08;98710.22;5091446;28;20207;-73
2023/05/17 10:18:01;;;;;;;4.97;2.90;;;;;;;14.14;56.16;98710.09;5089396;28;20436;-74
2023/05/17 10:20:28;;;;;;;5.20;2.90;;;;;;;14.03;55.20;98702.94;5089844;28;20216;-75
2023/05/17 10:22:59;;;;;;;4.27;2.70;;;;;;;14.04;53.75;98688.69;5091275;28;20220;-73
2023/05/17 10:25:26;;;;;;;5.10;2.67;;;;;;;14.27;54.17;98692.31;5091368;28;20208;-74
2023/05/17 10:27:53;;;;;;;4.37;2.60;;;;;;;14.45;55.22;98714.84;5091646;28;20233;-74
2023/05/17 10:30:20;;;;;;;7.20;2.77;;;;;;;14.48;53.74;98693.34;5091135;28;20250;-75
2023/05/17 10:32:50;;;;;;;4.43;2.70;;;;;;;14.68;56.43;98732.59;5091481;28;20232;-73
2023/05/17 10:35:18;;;;;;;6.03;2.60;;;;;;;14.72;54.94;98712.78;5092789;28;20682;-73
2023/05/17 10:37:44;;;;;;;7.33;2.77;;;;;;;14.64;53.44;98689.41;5093313;28;20236;-75
2023/05/17 10:40:12;;;;;;;5.10;2.63;;;;;;;14.53;53.37;98685.84;5090790;28;20685;-77
2023/05/17 10:42:40;;;;;;;5.90;2.90;;;;;;;14.55;54.28;98699.91;5091402;28;20535;-76
2023/05/17 10:45:09;;;;;;;3.87;2.33;;;;;;;14.47;52.08;98681.00;5091620;28;20268;-76
2023/05/17 10:47:36;;;;;;;4.43;2.50;;;;;;;14.47;51.72;98670.34;5091447;28;20209;-76
2023/05/17 10:50:11;;;;;;;6.20;2.43;;;;;;;14.48;53.51;98709.31;5091172;28;20208;-76
2023/05/17 10:52:38;;;;;;;7.03;3.27;;;;;;;14.55;54.45;98710.53;5091331;28;20232;-76
2023/05/17 10:55:08;;;;;;;6.00;2.73;;;;;;;14.53;53.32;98691.16;5092052;28;20587;-76
2023/05/17 10:57:37;;;;;;;4.93;2.70;;;;;;;14.29;53.05;98687.75;5092458;28;20258;-76
2023/05/17 11:00:06;;;;;;;5.93;3.10;;;;;;;14.41;53.42;98692.09;5092571;28;20208;-76
2023/05/17 11:02:33;;;;;;;3.57;2.53;;;;;;;14.36;54.37;98708.41;5094476;28;20204;-76
2023/05/17 11:05:01;;;;;;;4.57;2.90;;;;;;;14.50;55.07;98723.34;5094641;28;20583;-76
2023/05/17 11:07:31;;;;;;;5.13;2.70;;;;;;;14.48;55.11;98719.97;5092962;28;20278;-76
2023/05/17 11:10:05;;;;;;;5.37;2.83;;;;;;;14.30;54.11;98706.22;5091498;28;20209;-76
2023/05/17 11:12:35;;;;;;;4.53;2.73;;;;;;;14.30;54.86;98724.00;5091333;28;20657;-77
2023/05/17 11:15:05;;;;;;;3.50;2.60;;;;;;;14.35;54.91;98716.53;5091145;28;20574;-76
2023/05/17 11:17:35;;;;;;;5.33;2.50;;;;;;;14.32;53.91;98708.75;5090863;28;20582;-76
2023/05/17 11:20:30;;;;;;;4.17;2.43;;;;;;;14.15;53.28;98706.47;5090421;28;20318;-76
2023/05/17 11:22:59;;;;;;;4.53;2.20;;;;;;;14.18;55.69;98732.84;5090779;28;20259;-75
2023/05/17 11:25:28;;;;;;;4.23;2.73;;;;;;;14.32;53.60;98700.78;5090712;28;20298;-75
2023/05/17 11:27:55;;;;;;;3.23;2.10;;;;;;;14.15;54.42;98711.78;5090694;28;20206;-75
2023/05/17 11:30:25;;;;;;;4.50;2.40;;;;;;;14.07;54.37;98708.88;5090514;28;20207;-75
2023/05/17 11:32:53;;;;;;;4.13;2.40;;;;;;;14.17;54.86;98716.03;5091138;28;20241;-75
2023/05/17 11:35:24;;;;;;;3.40;2.20;;;;;;;14.29;56.58;98735.59;5094480;28;20204;-75
2023/05/17 11:37:52;;;;;;;4.60;2.93;;;;;;;14.35;55.26;98712.03;5094831;28;20204;-75